sensor_id;sensor_type;location;lat;lon;timestamp;P1;durP1;ratioP1;P2;durP2;ratioP2
45344;SDS011;31078;48.304;11.896;2023-08-01T00:01:09;5.18;;;3.00;;
45344;SDS011;31078;48.304;11.896;2023-08-01T00:03:36;6.78;;;3.17;;
45344;SDS011;31078;48.304;11.896;2023-08-01T00:06:03;4.75;;;3.35;;
45344;SDS011;31078;48.304;11.896;2023-08-01T00:08:29;4.88;;;2.70;;
45344;SDS011;31078;48.304;11.896;2023-08-01T00:10:56;7.03;;;3.45;;
45344;SDS011;31078;48.304;11.896;2023-08-01T00:13:22;6.80;;;3.08;;
45344;SDS011;31078;48.304;11.896;2023-08-01T00:15:49;4.88;;;3.42;;
45344;SDS011;31078;48.304;11.896;2023-08-01T00:18:15;5.15;;;3.05;;
45344;SDS011;31078;48.304;11.896;2023-08-01T00:20:43;5.13;;;2.97;;
45344;SDS011;31078;48.304;11.896;2023-08-01T00:23:10;4.53;;;2.97;;
45344;SDS011;31078;48.304;11.896;2023-08-01T00:25:36;4.82;;;2.83;;
45344;SDS011;31078;48.304;11.896;2023-08-01T00:28:03;5.43;;;2.70;;
45344;SDS011;31078;48.304;11.896;2023-08-01T00:30:30;4.47;;;2.85;;
45344;SDS011;31078;48.304;11.896;2023-08-01T00:32:56;4.22;;;2.80;;
45344;SDS011;31078;48.304;11.896;2023-08-01T00:35:22;5.35;;;2.78;;
45344;SDS011;31078;48.304;11.896;2023-08-01T00:37:50;5.28;;;2.83;;
45344;SDS011;31078;48.304;11.896;2023-08-01T00:40:17;4.68;;;2.80;;
45344;SDS011;31078;48.304;11.896;2023-08-01T00:42:44;5.38;;;3.10;;
45344;SDS011;31078;48.304;11.896;2023-08-01T00:45:10;5.88;;;2.67;;
45344;SDS011;31078;48.304;11.896;2023-08-01T00:47:37;4.63;;;2.90;;
45344;SDS011;31078;48.304;11.896;2023-08-01T00:50:04;5.35;;;2.67;;
45344;SDS011;31078;48.304;11.896;2023-08-01T00:52:32;6.38;;;2.80;;
45344;SDS011;31078;48.304;11.896;2023-08-01T00:55:03;6.70;;;2.95;;
45344;SDS011;31078;48.304;11.896;2023-08-01T00:57:33;5.90;;;2.60;;
45344;SDS011;31078;48.304;11.896;2023-08-01T01:00:00;3.95;;;2.45;;
45344;SDS011;31078;48.304;11.896;2023-08-01T01:02:26;5.65;;;2.53;;
45344;SDS011;31078;48.304;11.896;2023-08-01T01:04:53;10.10;;;2.83;;
45344;SDS011;31078;48.304;11.896;2023-08-01T01:07:20;3.85;;;2.33;;
45344;SDS011;31078;48.304;11.896;2023-08-01T01:09:49;5.97;;;2.40;;
45344;SDS011;31078;48.304;11.896;2023-08-01T01:12:17;5.70;;;2.65;;
45344;SDS011;31078;48.304;11.896;2023-08-01T01:14:44;5.28;;;2.63;;
45344;SDS011;31078;48.304;11.896;2023-08-01T01:17:11;5.55;;;2.80;;
45344;SDS011;31078;48.304;11.896;2023-08-01T01:19:37;4.82;;;2.95;;
45344;SDS011;31078;48.304;11.896;2023-08-01T01:22:06;5.72;;;2.67;;
45344;SDS011;31078;48.304;11.896;2023-08-01T01:24:35;4.90;;;2.72;;
45344;SDS011;31078;48.304;11.896;2023-08-01T01:27:02;4.65;;;3.10;;
45344;SDS011;31078;48.304;11.896;2023-08-01T01:29:31;4.47;;;2.78;;
45344;SDS011;31078;48.304;11.896;2023-08-01T01:32:00;5.93;;;2.88;;
45344;SDS011;31078;48.304;11.896;2023-08-01T01:34:27;4.22;;;2.83;;
45344;SDS011;31078;48.304;11.896;2023-08-01T01:36:54;5.15;;;3.22;;
45344;SDS011;31078;48.304;11.896;2023-08-01T01:39:22;5.93;;;3.13;;
45344;SDS011;31078;48.304;11.896;2023-08-01T01:41:48;9.38;;;3.30;;
45344;SDS011;31078;48.304;11.896;2023-08-01T01:44:17;6.47;;;2.75;;
45344;SDS011;31078;48.304;11.896;2023-08-01T01:46:44;6.72;;;2.95;;
45344;SDS011;31078;48.304;11.896;2023-08-01T01:49:11;4.53;;;2.88;;
45344;SDS011;31078;48.304;11.896;2023-08-01T01:51:38;5.13;;;2.97;;
45344;SDS011;31078;48.304;11.896;2023-08-01T01:54:04;4.70;;;2.72;;
45344;SDS011;31078;48.304;11.896;2023-08-01T01:56:32;4.90;;;2.88;;
45344;SDS011;31078;48.304;11.896;2023-08-01T01:59:00;4.38;;;2.65;;
45344;SDS011;31078;48.304;11.896;2023-08-01T02:01:27;9.70;;;3.45;;
45344;SDS011;31078;48.304;11.896;2023-08-01T02:03:53;3.42;;;2.20;;
45344;SDS011;31078;48.304;11.896;2023-08-01T02:06:20;8.02;;;3.10;;
45344;SDS011;31078;48.304;11.896;2023-08-01T02:08:46;9.10;;;3.22;;
45344;SDS011;31078;48.304;11.896;2023-08-01T02:11:13;5.03;;;3.05;;
45344;SDS011;31078;48.304;11.896;2023-08-01T02:13:41;5.63;;;2.53;;
45344;SDS011;31078;48.304;11.896;2023-08-01T02:16:07;8.13;;;3.20;;
45344;SDS011;31078;48.304;11.896;2023-08-01T02:18:34;3.67;;;2.67;;
45344;SDS011;31078;48.304;11.896;2023-08-01T02:21:00;5.05;;;2.97;;
45344;SDS011;31078;48.304;11.896;2023-08-01T02:23:27;4.53;;;3.03;;
45344;SDS011;31078;48.304;11.896;2023-08-01T02:25:54;5.53;;;2.80;;
45344;SDS011;31078;48.304;11.896;2023-08-01T02:28:20;5.32;;;2.70;;
45344;SDS011;31078;48.304;11.896;2023-08-01T02:30:48;4.68;;;2.90;;
45344;SDS011;31078;48.304;11.896;2023-08-01T02:33:15;9.48;;;3.72;;
45344;SDS011;31078;48.304;11.896;2023-08-01T02:35:42;4.47;;;2.92;;
45344;SDS011;31078;48.304;11.896;2023-08-01T02:38:08;5.03;;;2.72;;
45344;SDS011;31078;48.304;11.896;2023-08-01T02:40:35;5.80;;;3.20;;
45344;SDS011;31078;48.304;11.896;2023-08-01T02:43:01;4.80;;;2.78;;
45344;SDS011;31078;48.304;11.896;2023-08-01T02:45:28;5.90;;;2.90;;
45344;SDS011;31078;48.304;11.896;2023-08-01T02:47:56;5.90;;;3.25;;
45344;SDS011;31078;48.304;11.896;2023-08-01T02:50:22;4.10;;;2.80;;
45344;SDS011;31078;48.304;11.896;2023-08-01T02:52:48;5.20;;;2.75;;
45344;SDS011;31078;48.304;11.896;2023-08-01T02:55:15;4.95;;;2.88;;
45344;SDS011;31078;48.304;11.896;2023-08-01T02:57:42;5.05;;;2.90;;
45344;SDS011;31078;48.304;11.896;2023-08-01T03:00:09;5.95;;;2.83;;
45344;SDS011;31078;48.304;11.896;2023-08-01T03:02:37;6.03;;;2.72;;
45344;SDS011;31078;48.304;11.896;2023-08-01T03:05:07;8.98;;;3.03;;
45344;SDS011;31078;48.304;11.896;2023-08-01T03:07:34;5.75;;;3.50;;
45344;SDS011;31078;48.304;11.896;2023-08-01T03:10:01;9.88;;;3.60;;
45344;SDS011;31078;48.304;11.896;2023-08-01T03:12:28;5.07;;;3.03;;
45344;SDS011;31078;48.304;11.896;2023-08-01T03:14:56;5.60;;;3.28;;
45344;SDS011;31078;48.304;11.896;2023-08-01T03:17:22;5.75;;;3.42;;
45344;SDS011;31078;48.304;11.896;2023-08-01T03:19:49;6.50;;;3.40;;
45344;SDS011;31078;48.304;11.896;2023-08-01T03:22:16;9.35;;;2.80;;
45344;SDS011;31078;48.304;11.896;2023-08-01T03:24:43;5.07;;;2.88;;
45344;SDS011;31078;48.304;11.896;2023-08-01T03:27:10;6.10;;;3.17;;
45344;SDS011;31078;48.304;11.896;2023-08-01T03:29:36;5.85;;;3.10;;
45344;SDS011;31078;48.304;11.896;2023-08-01T03:32:03;4.85;;;3.08;;
45344;SDS011;31078;48.304;11.896;2023-08-01T03:34:30;4.35;;;2.95;;
45344;SDS011;31078;48.304;11.896;2023-08-01T03:36:56;6.32;;;3.22;;
45344;SDS011;31078;48.304;11.896;2023-08-01T03:39:25;6.80;;;3.10;;
45344;SDS011;31078;48.304;11.896;2023-08-01T03:41:51;6.68;;;3.75;;
45344;SDS011;31078;48.304;11.896;2023-08-01T03:44:18;4.97;;;3.00;;
45344;SDS011;31078;48.304;11.896;2023-08-01T03:46:44;7.70;;;3.53;;
45344;SDS011;31078;48.304;11.896;2023-08-01T03:49:12;4.72;;;3.03;;
45344;SDS011;31078;48.304;11.896;2023-08-01T03:51:39;8.35;;;3.70;;
45344;SDS011;31078;48.304;11.896;2023-08-01T03:54:05;9.38;;;3.58;;
45344;SDS011;31078;48.304;11.896;2023-08-01T03:56:33;10.73;;;3.22;;
45344;SDS011;31078;48.304;11.896;2023-08-01T03:59:00;5.10;;;3.17;;
45344;SDS011;31078;48.304;11.896;2023-08-01T04:01:29;6.90;;;3.35;;
45344;SDS011;31078;48.304;11.896;2023-08-01T04:03:55;7.57;;;3.72;;
45344;SDS011;31078;48.304;11.896;2023-08-01T04:06:22;5.85;;;3.25;;
45344;SDS011;31078;48.304;11.896;2023-08-01T04:08:48;8.82;;;3.50;;
45344;SDS011;31078;48.304;11.896;2023-08-01T04:11:16;7.55;;;3.55;;
45344;SDS011;31078;48.304;11.896;2023-08-01T04:13:44;6.97;;;3.08;;
45344;SDS011;31078;48.304;11.896;2023-08-01T04:16:11;6.60;;;3.45;;
45344;SDS011;31078;48.304;11.896;2023-08-01T04:18:37;7.07;;;3.53;;
45344;SDS011;31078;48.304;11.896;2023-08-01T04:21:04;7.63;;;3.53;;
45344;SDS011;31078;48.304;11.896;2023-08-01T04:23:31;7.20;;;3.63;;
45344;SDS011;31078;48.304;11.896;2023-08-01T04:25:58;6.88;;;3.53;;
45344;SDS011;31078;48.304;11.896;2023-08-01T04:28:24;7.05;;;4.07;;
45344;SDS011;31078;48.304;11.896;2023-08-01T04:30:52;7.22;;;3.63;;
45344;SDS011;31078;48.304;11.896;2023-08-01T04:33:19;6.25;;;3.88;;
45344;SDS011;31078;48.304;11.896;2023-08-01T04:35:45;6.45;;;3.67;;
45344;SDS011;31078;48.304;11.896;2023-08-01T04:38:12;9.20;;;4.53;;
45344;SDS011;31078;48.304;11.896;2023-08-01T04:40:38;6.03;;;4.20;;
45344;SDS011;31078;48.304;11.896;2023-08-01T04:43:05;9.00;;;4.32;;
45344;SDS011;31078;48.304;11.896;2023-08-01T04:45:31;5.88;;;3.65;;
45344;SDS011;31078;48.304;11.896;2023-08-01T04:47:59;11.70;;;4.07;;
45344;SDS011;31078;48.304;11.896;2023-08-01T04:50:25;6.80;;;4.28;;
45344;SDS011;31078;48.304;11.896;2023-08-01T04:52:52;6.15;;;4.03;;
45344;SDS011;31078;48.304;11.896;2023-08-01T04:55:19;8.80;;;4.32;;
45344;SDS011;31078;48.304;11.896;2023-08-01T04:57:45;8.88;;;4.47;;
45344;SDS011;31078;48.304;11.896;2023-08-01T05:00:12;12.25;;;5.40;;
45344;SDS011;31078;48.304;11.896;2023-08-01T05:02:39;8.40;;;4.93;;
45344;SDS011;31078;48.304;11.896;2023-08-01T05:05:07;8.00;;;4.55;;
45344;SDS011;31078;48.304;11.896;2023-08-01T05:07:34;9.52;;;5.25;;
45344;SDS011;31078;48.304;11.896;2023-08-01T05:10:00;10.07;;;4.88;;
45344;SDS011;31078;48.304;11.896;2023-08-01T05:12:27;8.45;;;4.68;;
45344;SDS011;31078;48.304;11.896;2023-08-01T05:14:53;7.50;;;4.50;;
45344;SDS011;31078;48.304;11.896;2023-08-01T05:17:20;8.93;;;5.38;;
45344;SDS011;31078;48.304;11.896;2023-08-01T05:19:48;11.93;;;5.60;;
45344;SDS011;31078;48.304;11.896;2023-08-01T05:22:16;8.27;;;5.07;;
45344;SDS011;31078;48.304;11.896;2023-08-01T05:24:42;9.85;;;5.47;;
45344;SDS011;31078;48.304;11.896;2023-08-01T05:27:09;12.27;;;5.43;;
45344;SDS011;31078;48.304;11.896;2023-08-01T05:29:35;11.10;;;5.35;;
45344;SDS011;31078;48.304;11.896;2023-08-01T05:32:02;7.75;;;5.28;;
45344;SDS011;31078;48.304;11.896;2023-08-01T05:34:29;13.18;;;5.25;;
45344;SDS011;31078;48.304;11.896;2023-08-01T05:36:55;8.02;;;5.22;;
45344;SDS011;31078;48.304;11.896;2023-08-01T05:39:23;16.33;;;6.25;;
45344;SDS011;31078;48.304;11.896;2023-08-01T05:41:50;10.38;;;5.53;;
45344;SDS011;31078;48.304;11.896;2023-08-01T05:44:16;9.50;;;5.40;;
45344;SDS011;31078;48.304;11.896;2023-08-01T05:46:43;12.95;;;6.45;;
45344;SDS011;31078;48.304;11.896;2023-08-01T05:49:09;9.70;;;5.63;;
45344;SDS011;31078;48.304;11.896;2023-08-01T05:51:36;8.60;;;5.50;;
45344;SDS011;31078;48.304;11.896;2023-08-01T05:54:02;10.50;;;5.82;;
45344;SDS011;31078;48.304;11.896;2023-08-01T05:56:30;8.15;;;5.57;;
45344;SDS011;31078;48.304;11.896;2023-08-01T05:58:57;8.35;;;5.45;;
45344;SDS011;31078;48.304;11.896;2023-08-01T06:01:24;10.32;;;5.90;;
45344;SDS011;31078;48.304;11.896;2023-08-01T06:03:50;11.40;;;6.07;;
45344;SDS011;31078;48.304;11.896;2023-08-01T06:06:20;10.55;;;6.10;;
45344;SDS011;31078;48.304;11.896;2023-08-01T06:08:46;9.55;;;5.63;;
45344;SDS011;31078;48.304;11.896;2023-08-01T06:11:13;9.55;;;6.03;;
45344;SDS011;31078;48.304;11.896;2023-08-01T06:13:41;17.08;;;5.88;;
45344;SDS011;31078;48.304;11.896;2023-08-01T06:16:08;13.02;;;5.75;;
45344;SDS011;31078;48.304;11.896;2023-08-01T06:18:34;9.45;;;5.32;;
45344;SDS011;31078;48.304;11.896;2023-08-01T06:21:01;8.68;;;4.65;;
45344;SDS011;31078;48.304;11.896;2023-08-01T06:23:28;8.35;;;5.68;;
45344;SDS011;31078;48.304;11.896;2023-08-01T06:25:55;9.05;;;6.03;;
45344;SDS011;31078;48.304;11.896;2023-08-01T06:28:21;9.15;;;5.82;;
45344;SDS011;31078;48.304;11.896;2023-08-01T06:30:49;12.23;;;5.70;;
45344;SDS011;31078;48.304;11.896;2023-08-01T06:33:16;7.60;;;5.43;;
45344;SDS011;31078;48.304;11.896;2023-08-01T06:35:42;8.43;;;5.28;;
45344;SDS011;31078;48.304;11.896;2023-08-01T06:38:09;8.93;;;5.32;;
45344;SDS011;31078;48.304;11.896;2023-08-01T06:40:35;7.97;;;5.15;;
45344;SDS011;31078;48.304;11.896;2023-08-01T06:43:02;10.52;;;4.85;;
45344;SDS011;31078;48.304;11.896;2023-08-01T06:45:29;9.55;;;5.20;;
45344;SDS011;31078;48.304;11.896;2023-08-01T06:47:57;8.90;;;5.00;;
45344;SDS011;31078;48.304;11.896;2023-08-01T06:50:24;8.07;;;5.18;;
45344;SDS011;31078;48.304;11.896;2023-08-01T06:52:50;7.13;;;4.82;;
45344;SDS011;31078;48.304;11.896;2023-08-01T06:55:17;8.70;;;4.32;;
45344;SDS011;31078;48.304;11.896;2023-08-01T06:57:43;10.15;;;4.40;;
45344;SDS011;31078;48.304;11.896;2023-08-01T07:00:10;9.98;;;4.93;;
45344;SDS011;31078;48.304;11.896;2023-08-01T07:02:37;9.93;;;4.60;;
45344;SDS011;31078;48.304;11.896;2023-08-01T07:05:06;8.30;;;4.63;;
45344;SDS011;31078;48.304;11.896;2023-08-01T07:07:33;10.18;;;4.82;;
45344;SDS011;31078;48.304;11.896;2023-08-01T07:09:59;9.15;;;4.72;;
45344;SDS011;31078;48.304;11.896;2023-08-01T07:12:26;8.60;;;4.78;;
45344;SDS011;31078;48.304;11.896;2023-08-01T07:14:52;9.13;;;4.63;;
45344;SDS011;31078;48.304;11.896;2023-08-01T07:17:19;7.30;;;4.20;;
45344;SDS011;31078;48.304;11.896;2023-08-01T07:19:45;9.07;;;4.55;;
45344;SDS011;31078;48.304;11.896;2023-08-01T07:22:13;6.55;;;3.95;;
45344;SDS011;31078;48.304;11.896;2023-08-01T07:24:40;7.20;;;4.43;;
45344;SDS011;31078;48.304;11.896;2023-08-01T07:27:06;8.80;;;4.53;;
45344;SDS011;31078;48.304;11.896;2023-08-01T07:29:33;8.15;;;4.03;;
45344;SDS011;31078;48.304;11.896;2023-08-01T07:31:59;6.20;;;3.65;;
45344;SDS011;31078;48.304;11.896;2023-08-01T07:34:27;9.15;;;4.43;;
45344;SDS011;31078;48.304;11.896;2023-08-01T07:36:54;10.15;;;4.10;;
45344;SDS011;31078;48.304;11.896;2023-08-01T07:39:24;7.25;;;4.20;;
45344;SDS011;31078;48.304;11.896;2023-08-01T07:41:51;7.85;;;3.83;;
45344;SDS011;31078;48.304;11.896;2023-08-01T07:44:17;9.50;;;3.92;;
45344;SDS011;31078;48.304;11.896;2023-08-01T07:46:44;6.85;;;4.30;;
45344;SDS011;31078;48.304;11.896;2023-08-01T07:49:10;6.68;;;4.15;;
45344;SDS011;31078;48.304;11.896;2023-08-01T07:51:39;5.85;;;3.55;;
45344;SDS011;31078;48.304;11.896;2023-08-01T07:54:06;7.03;;;4.00;;
45344;SDS011;31078;48.304;11.896;2023-08-01T07:56:39;6.60;;;4.00;;
45344;SDS011;31078;48.304;11.896;2023-08-01T07:59:06;7.32;;;3.60;;
45344;SDS011;31078;48.304;11.896;2023-08-01T08:01:38;6.93;;;3.70;;
45344;SDS011;31078;48.304;11.896;2023-08-01T08:04:08;6.80;;;3.85;;
45344;SDS011;31078;48.304;11.896;2023-08-01T08:06:39;7.63;;;3.95;;
45344;SDS011;31078;48.304;11.896;2023-08-01T08:09:09;9.25;;;4.10;;
45344;SDS011;31078;48.304;11.896;2023-08-01T08:11:54;7.65;;;3.85;;
45344;SDS011;31078;48.304;11.896;2023-08-01T08:14:37;6.90;;;4.10;;
45344;SDS011;31078;48.304;11.896;2023-08-01T08:17:04;5.28;;;3.67;;
45344;SDS011;31078;48.304;11.896;2023-08-01T08:19:30;9.85;;;3.92;;
45344;SDS011;31078;48.304;11.896;2023-08-01T08:21:57;6.68;;;4.13;;
45344;SDS011;31078;48.304;11.896;2023-08-01T08:24:23;6.78;;;4.13;;
45344;SDS011;31078;48.304;11.896;2023-08-01T08:26:51;6.25;;;3.70;;
45344;SDS011;31078;48.304;11.896;2023-08-01T08:29:18;9.18;;;4.03;;
45344;SDS011;31078;48.304;11.896;2023-08-01T08:31:44;6.13;;;3.90;;
45344;SDS011;31078;48.304;11.896;2023-08-01T08:34:15;6.60;;;3.33;;
45344;SDS011;31078;48.304;11.896;2023-08-01T08:36:41;5.80;;;3.47;;
45344;SDS011;31078;48.304;11.896;2023-08-01T08:39:08;8.02;;;3.90;;
45344;SDS011;31078;48.304;11.896;2023-08-01T08:41:37;10.75;;;3.90;;
45344;SDS011;31078;48.304;11.896;2023-08-01T08:44:10;9.80;;;3.80;;
45344;SDS011;31078;48.304;11.896;2023-08-01T08:46:41;7.72;;;3.80;;
45344;SDS011;31078;48.304;11.896;2023-08-01T08:49:14;6.57;;;4.05;;
45344;SDS011;31078;48.304;11.896;2023-08-01T08:51:42;7.18;;;4.53;;
45344;SDS011;31078;48.304;11.896;2023-08-01T08:54:13;8.63;;;4.30;;
45344;SDS011;31078;48.304;11.896;2023-08-01T08:56:46;7.25;;;4.10;;
45344;SDS011;31078;48.304;11.896;2023-08-01T08:59:15;8.27;;;4.10;;
45344;SDS011;31078;48.304;11.896;2023-08-01T09:01:42;7.63;;;3.90;;
45344;SDS011;31078;48.304;11.896;2023-08-01T09:04:08;8.13;;;3.97;;
45344;SDS011;31078;48.304;11.896;2023-08-01T09:06:37;7.95;;;3.72;;
45344;SDS011;31078;48.304;11.896;2023-08-01T09:09:09;9.02;;;4.13;;
45344;SDS011;31078;48.304;11.896;2023-08-01T09:11:41;8.32;;;3.65;;
45344;SDS011;31078;48.304;11.896;2023-08-01T09:14:10;5.32;;;3.40;;
45344;SDS011;31078;48.304;11.896;2023-08-01T09:16:40;7.05;;;3.45;;
45344;SDS011;31078;48.304;11.896;2023-08-01T09:19:08;6.45;;;3.58;;
45344;SDS011;31078;48.304;11.896;2023-08-01T09:21:35;5.95;;;3.22;;
45344;SDS011;31078;48.304;11.896;2023-08-01T09:24:09;5.65;;;3.20;;
45344;SDS011;31078;48.304;11.896;2023-08-01T09:29:03;7.70;;;3.30;;
45344;SDS011;31078;48.304;11.896;2023-08-01T09:31:30;5.90;;;3.47;;
45344;SDS011;31078;48.304;11.896;2023-08-01T09:34:00;4.55;;;2.97;;
45344;SDS011;31078;48.304;11.896;2023-08-01T09:36:27;6.43;;;3.58;;
45344;SDS011;31078;48.304;11.896;2023-08-01T09:38:57;8.15;;;2.90;;
45344;SDS011;31078;48.304;11.896;2023-08-01T09:41:24;5.03;;;2.90;;
45344;SDS011;31078;48.304;11.896;2023-08-01T09:43:51;5.43;;;3.25;;
45344;SDS011;31078;48.304;11.896;2023-08-01T09:46:17;5.45;;;2.95;;
45344;SDS011;31078;48.304;11.896;2023-08-01T09:48:44;6.45;;;3.40;;
45344;SDS011;31078;48.304;11.896;2023-08-01T09:51:12;6.00;;;3.33;;
45344;SDS011;31078;48.304;11.896;2023-08-01T09:53:47;5.65;;;3.47;;
45344;SDS011;31078;48.304;11.896;2023-08-01T09:56:18;6.80;;;3.33;;
45344;SDS011;31078;48.304;11.896;2023-08-01T09:58:47;6.90;;;3.30;;
45344;SDS011;31078;48.304;11.896;2023-08-01T10:01:14;7.85;;;3.50;;
45344;SDS011;31078;48.304;11.896;2023-08-01T10:03:46;6.55;;;3.50;;
45344;SDS011;31078;48.304;11.896;2023-08-01T10:06:16;7.05;;;3.40;;
45344;SDS011;31078;48.304;11.896;2023-08-01T10:08:45;6.90;;;3.08;;
45344;SDS011;31078;48.304;11.896;2023-08-01T10:11:12;5.25;;;3.10;;
45344;SDS011;31078;48.304;11.896;2023-08-01T10:13:43;5.80;;;3.08;;
45344;SDS011;31078;48.304;11.896;2023-08-01T10:16:10;4.60;;;3.00;;
45344;SDS011;31078;48.304;11.896;2023-08-01T10:18:37;6.90;;;3.28;;
45344;SDS011;31078;48.304;11.896;2023-08-01T10:21:05;7.13;;;3.42;;
45344;SDS011;31078;48.304;11.896;2023-08-01T10:23:34;7.63;;;3.30;;
45344;SDS011;31078;48.304;11.896;2023-08-01T10:26:01;5.90;;;3.15;;
45344;SDS011;31078;48.304;11.896;2023-08-01T10:28:32;5.63;;;2.95;;
45344;SDS011;31078;48.304;11.896;2023-08-01T10:31:08;6.78;;;3.78;;
45344;SDS011;31078;48.304;11.896;2023-08-01T10:33:36;6.80;;;3.50;;
45344;SDS011;31078;48.304;11.896;2023-08-01T10:36:11;7.85;;;3.50;;
45344;SDS011;31078;48.304;11.896;2023-08-01T10:38:45;7.07;;;3.53;;
45344;SDS011;31078;48.304;11.896;2023-08-01T10:41:20;5.15;;;2.80;;
45344;SDS011;31078;48.304;11.896;2023-08-01T10:43:47;6.30;;;2.72;;
45344;SDS011;31078;48.304;11.896;2023-08-01T10:46:14;5.28;;;2.63;;
45344;SDS011;31078;48.304;11.896;2023-08-01T10:48:50;5.13;;;2.42;;
45344;SDS011;31078;48.304;11.896;2023-08-01T10:51:18;4.18;;;2.70;;
45344;SDS011;31078;48.304;11.896;2023-08-01T10:53:46;4.72;;;1.98;;
45344;SDS011;31078;48.304;11.896;2023-08-01T10:56:16;4.00;;;2.55;;
45344;SDS011;31078;48.304;11.896;2023-08-01T10:58:44;5.65;;;2.28;;
45344;SDS011;31078;48.304;11.896;2023-08-01T11:01:11;3.72;;;2.15;;
45344;SDS011;31078;48.304;11.896;2023-08-01T11:03:38;4.45;;;2.53;;
45344;SDS011;31078;48.304;11.896;2023-08-01T11:06:07;3.92;;;2.40;;
45344;SDS011;31078;48.304;11.896;2023-08-01T11:08:34;4.07;;;2.45;;
45344;SDS011;31078;48.304;11.896;2023-08-01T11:11:03;4.32;;;2.50;;
45344;SDS011;31078;48.304;11.896;2023-08-01T11:13:31;4.50;;;2.80;;
45344;SDS011;31078;48.304;11.896;2023-08-01T11:16:00;4.95;;;3.10;;
45344;SDS011;31078;48.304;11.896;2023-08-01T11:18:27;5.53;;;3.30;;
45344;SDS011;31078;48.304;11.896;2023-08-01T11:20:54;7.20;;;3.33;;
45344;SDS011;31078;48.304;11.896;2023-08-01T11:23:27;7.00;;;3.30;;
45344;SDS011;31078;48.304;11.896;2023-08-01T11:25:54;6.57;;;2.70;;
45344;SDS011;31078;48.304;11.896;2023-08-01T11:28:22;4.78;;;2.92;;
45344;SDS011;31078;48.304;11.896;2023-08-01T11:30:49;8.77;;;2.97;;
45344;SDS011;31078;48.304;11.896;2023-08-01T11:33:17;5.57;;;3.38;;
45344;SDS011;31078;48.304;11.896;2023-08-01T11:35:46;4.78;;;2.92;;
45344;SDS011;31078;48.304;11.896;2023-08-01T11:38:17;5.15;;;2.70;;
45344;SDS011;31078;48.304;11.896;2023-08-01T11:40:44;7.45;;;2.97;;
45344;SDS011;31078;48.304;11.896;2023-08-01T11:43:11;6.15;;;2.72;;
45344;SDS011;31078;48.304;11.896;2023-08-01T11:45:48;4.97;;;2.95;;
45344;SDS011;31078;48.304;11.896;2023-08-01T11:48:16;5.15;;;2.75;;
45344;SDS011;31078;48.304;11.896;2023-08-01T11:50:43;4.50;;;2.60;;
45344;SDS011;31078;48.304;11.896;2023-08-01T11:53:17;5.15;;;2.67;;
45344;SDS011;31078;48.304;11.896;2023-08-01T11:55:44;6.40;;;3.10;;
45344;SDS011;31078;48.304;11.896;2023-08-01T11:58:11;3.55;;;2.28;;
45344;SDS011;31078;48.304;11.896;2023-08-01T12:00:39;4.45;;;2.40;;
45344;SDS011;31078;48.304;11.896;2023-08-01T12:03:07;4.80;;;2.83;;
45344;SDS011;31078;48.304;11.896;2023-08-01T12:05:38;3.83;;;2.33;;
45344;SDS011;31078;48.304;11.896;2023-08-01T12:08:10;4.25;;;2.40;;
45344;SDS011;31078;48.304;11.896;2023-08-01T12:10:38;4.90;;;2.60;;
45344;SDS011;31078;48.304;11.896;2023-08-01T12:13:05;4.75;;;2.13;;
45344;SDS011;31078;48.304;11.896;2023-08-01T12:15:31;3.67;;;1.92;;
45344;SDS011;31078;48.304;11.896;2023-08-01T12:17:59;4.90;;;2.40;;
45344;SDS011;31078;48.304;11.896;2023-08-01T12:20:27;5.05;;;2.17;;
45344;SDS011;31078;48.304;11.896;2023-08-01T12:22:54;5.63;;;2.05;;
45344;SDS011;31078;48.304;11.896;2023-08-01T12:25:20;4.10;;;2.03;;
45344;SDS011;31078;48.304;11.896;2023-08-01T12:27:47;3.17;;;1.85;;
45344;SDS011;31078;48.304;11.896;2023-08-01T12:30:13;3.72;;;2.53;;
45344;SDS011;31078;48.304;11.896;2023-08-01T12:32:40;6.47;;;2.33;;
45344;SDS011;31078;48.304;11.896;2023-08-01T12:35:07;6.78;;;2.10;;
45344;SDS011;31078;48.304;11.896;2023-08-01T12:37:35;4.97;;;2.20;;
45344;SDS011;31078;48.304;11.896;2023-08-01T12:40:02;5.53;;;2.20;;
45344;SDS011;31078;48.304;11.896;2023-08-01T12:42:29;4.88;;;2.55;;
45344;SDS011;31078;48.304;11.896;2023-08-01T12:44:55;4.40;;;2.88;;
45344;SDS011;31078;48.304;11.896;2023-08-01T12:47:22;6.15;;;2.70;;
45344;SDS011;31078;48.304;11.896;2023-08-01T12:49:48;6.15;;;2.60;;
45344;SDS011;31078;48.304;11.896;2023-08-01T12:52:21;4.07;;;2.40;;
45344;SDS011;31078;48.304;11.896;2023-08-01T12:57:16;4.22;;;2.60;;
45344;SDS011;31078;48.304;11.896;2023-08-01T12:59:43;5.68;;;2.80;;
45344;SDS011;31078;48.304;11.896;2023-08-01T13:02:10;4.30;;;2.60;;
45344;SDS011;31078;48.304;11.896;2023-08-01T13:04:36;5.68;;;2.80;;
45344;SDS011;31078;48.304;11.896;2023-08-01T13:07:03;3.55;;;2.40;;
45344;SDS011;31078;48.304;11.896;2023-08-01T13:09:30;3.60;;;2.30;;
45344;SDS011;31078;48.304;11.896;2023-08-01T13:11:58;6.57;;;2.78;;
45344;SDS011;31078;48.304;11.896;2023-08-01T13:14:25;5.18;;;2.60;;
45344;SDS011;31078;48.304;11.896;2023-08-01T13:16:51;4.45;;;2.70;;
45344;SDS011;31078;48.304;11.896;2023-08-01T13:19:18;4.05;;;2.50;;
45344;SDS011;31078;48.304;11.896;2023-08-01T13:21:45;4.10;;;2.40;;
45344;SDS011;31078;48.304;11.896;2023-08-01T13:24:11;4.45;;;2.30;;
45344;SDS011;31078;48.304;11.896;2023-08-01T13:26:38;5.10;;;2.70;;
45344;SDS011;31078;48.304;11.896;2023-08-01T13:29:06;4.07;;;2.50;;
45344;SDS011;31078;48.304;11.896;2023-08-01T13:31:32;3.55;;;2.40;;
45344;SDS011;31078;48.304;11.896;2023-08-01T13:33:59;5.43;;;3.35;;
45344;SDS011;31078;48.304;11.896;2023-08-01T13:36:25;4.90;;;2.58;;
45344;SDS011;31078;48.304;11.896;2023-08-01T13:38:52;5.15;;;2.40;;
45344;SDS011;31078;48.304;11.896;2023-08-01T13:41:18;5.78;;;2.58;;
45344;SDS011;31078;48.304;11.896;2023-08-01T13:43:44;6.68;;;2.78;;
45344;SDS011;31078;48.304;11.896;2023-08-01T13:46:13;5.10;;;2.20;;
45344;SDS011;31078;48.304;11.896;2023-08-01T13:48:41;3.58;;;2.08;;
45344;SDS011;31078;48.304;11.896;2023-08-01T13:51:08;4.93;;;2.05;;
45344;SDS011;31078;48.304;11.896;2023-08-01T13:53:34;3.20;;;1.90;;
45344;SDS011;31078;48.304;11.896;2023-08-01T13:56:05;2.50;;;1.40;;
45344;SDS011;31078;48.304;11.896;2023-08-01T13:58:32;2.53;;;1.20;;
45344;SDS011;31078;48.304;11.896;2023-08-01T14:01:01;2.45;;;1.30;;
45344;SDS011;31078;48.304;11.896;2023-08-01T14:03:29;1.92;;;1.30;;
45344;SDS011;31078;48.304;11.896;2023-08-01T14:06:02;3.65;;;1.30;;
45344;SDS011;31078;48.304;11.896;2023-08-01T14:08:29;3.28;;;1.27;;
45344;SDS011;31078;48.304;11.896;2023-08-01T14:10:56;4.57;;;1.70;;
45344;SDS011;31078;48.304;11.896;2023-08-01T14:13:22;5.07;;;1.85;;
45344;SDS011;31078;48.304;11.896;2023-08-01T14:15:49;5.13;;;2.00;;
45344;SDS011;31078;48.304;11.896;2023-08-01T14:18:16;3.45;;;2.00;;
45344;SDS011;31078;48.304;11.896;2023-08-01T14:20:44;2.72;;;1.70;;
45344;SDS011;31078;48.304;11.896;2023-08-01T14:23:10;4.47;;;1.73;;
45344;SDS011;31078;48.304;11.896;2023-08-01T14:25:37;4.72;;;1.60;;
45344;SDS011;31078;48.304;11.896;2023-08-01T14:28:04;4.88;;;2.00;;
45344;SDS011;31078;48.304;11.896;2023-08-01T14:30:30;3.45;;;1.55;;
45344;SDS011;31078;48.304;11.896;2023-08-01T14:32:58;3.10;;;1.58;;
45344;SDS011;31078;48.304;11.896;2023-08-01T14:35:26;2.80;;;1.80;;
45344;SDS011;31078;48.304;11.896;2023-08-01T14:37:54;3.47;;;1.55;;
45344;SDS011;31078;48.304;11.896;2023-08-01T14:40:21;2.80;;;1.65;;